Time;durP1;ratioP1;P1;durP2;ratioP2;P2;SDS_P1;SDS_P2;PMS_P1;PMS_P2;Temp;Humidity;BMP_temperature;BMP_pressure;BME280_temperature;BME280_humidity;BME280_pressure;Samples;Min_cycle;Max_cycle;Signal;HPM_P1;HPM_P2
2022/06/05 00:05:14;;;;;;;28.80;19.10;;;;;;;15.17;74.09;98943.90;434265;1267;98857;-40
2022/06/05 00:15:21;;;;;;;18.90;16.90;;;;;;;15.03;74.57;98938.80;434098;1268;107730;-40
2022/06/05 00:25:34;;;;;;;27.30;18.20;;;;;;;14.93;74.68;98952.45;434055;1268;99269;-41
2022/06/05 00:35:40;;;;;;;20.50;16.10;;;;;;;14.80;74.84;98958.04;434160;1268;112354;-44
2022/06/05 00:45:48;;;;;;;22.40;18.20;;;;;;;14.66;74.92;98975.70;434072;1268;108764;-41
2022/06/05 00:55:55;;;;;;;22.40;19.50;;;;;;;14.35;74.88;98977.20;434449;1268;98857;-40
2022/06/05 01:06:03;;;;;;;22.40;19.40;;;;;;;14.14;75.09;98968.55;434106;1266;108955;-41
2022/06/05 01:16:10;;;;;;;24.10;18.20;;;;;;;14.13;75.56;98970.23;434822;1258;99804;-40
2022/06/05 01:26:22;;;;;;;24.80;19.50;;;;;;;14.10;75.49;98976.79;434059;1267;112364;-40
2022/06/05 01:36:28;;;;;;;24.10;21.50;;;;;;;13.96;75.53;98979.49;434062;1267;107769;-40
2022/06/05 01:46:38;;;;;;;23.50;19.80;;;;;;;13.63;75.38;98995.55;434239;1267;98982;-42
2022/06/05 01:56:51;;;;;;;25.80;20.60;;;;;;;13.53;75.94;99005.38;433978;1267;108778;-43
2022/06/05 02:07:00;;;;;;;22.20;19.00;;;;;;;13.62;76.21;99022.38;434109;1267;99264;-40
2022/06/05 02:17:04;;;;;;;;;;;;;;;13.63;76.39;99027.39;434133;1267;112271;-42
2022/06/05 02:27:11;;;;;;;21.80;18.10;;;;;;;13.69;76.59;99017.86;434209;1268;108799;-41
2022/06/05 02:37:27;;;;;;;22.80;18.70;;;;;;;13.72;76.57;99016.75;433985;1268;99320;-42
2022/06/05 02:47:33;;;;;;;27.90;18.60;;;;;;;13.68;76.61;99021.41;433975;1268;109267;-40
2022/06/05 02:57:44;;;;;;;23.10;16.30;;;;;;;13.70;76.71;99027.02;434127;1268;99288;-43
2022/06/05 03:07:52;;;;;;;21.70;16.40;;;;;;;13.79;76.88;99013.31;433748;1267;112387;-40
2022/06/05 03:17:59;;;;;;;19.80;15.80;;;;;;;13.84;76.87;99005.73;433766;1267;108804;-42
2022/06/05 03:28:04;;;;;;;18.40;16.40;;;;;;;13.97;77.04;99018.72;434238;1268;99283;-43
2022/06/05 03:38:13;;;;;;;21.20;15.80;;;;;;;14.01;77.04;99012.50;434263;1268;109042;-44
2022/06/05 03:48:21;;;;;;;26.70;19.70;;;;;;;14.03;77.15;99022.54;434038;1267;97982;-44
2022/06/05 03:58:28;;;;;;;23.10;19.00;;;;;;;14.02;77.02;99027.98;434179;1268;112606;-42
2022/06/05 04:08:36;;;;;;;19.30;17.20;;;;;;;14.28;77.12;99045.98;434052;1268;109551;-41
2022/06/05 04:18:44;;;;;;;18.20;15.90;;;;;;;14.61;76.80;99042.17;434281;1267;98953;-42
2022/06/05 04:38:59;;;;;;;15.80;13.70;;;;;;;17.44;76.09;99034.73;434134;1268;99285;-40
2022/06/05 04:59:11;;;;;;;14.80;11.30;;;;;;;21.01;71.99;99033.46;434067;1267;108743;-42
2022/06/05 05:09:18;;;;;;;12.40;11.00;;;;;;;21.79;70.49;99042.61;434061;1267;99279;-41
2022/06/05 05:19:25;;;;;;;12.90;10.00;;;;;;;22.51;69.13;99040.02;434178;1268;108987;-42
2022/06/05 05:29:32;;;;;;;11.60;10.30;;;;;;;22.54;67.79;99051.59;434043;1268;99260;-43
2022/06/05 05:50:11;;;;;;;14.00;10.50;;;;;;;21.95;64.72;99059.73;434337;1266;108771;-43
2022/06/05 06:00:20;;;;;;;11.50;9.50;;;;;;;21.74;64.62;99048.84;434164;1268;99270;-41
2022/06/05 06:10:28;;;;;;;13.00;10.60;;;;;;;22.02;63.65;99044.19;434143;1268;109192;-41
2022/06/05 06:20:36;;;;;;;11.40;10.00;;;;;;;22.51;63.13;99043.84;434090;1268;99384;-45
2022/06/05 06:30:44;;;;;;;11.00;9.00;;;;;;;22.71;62.11;99043.46;434103;1268;112363;-42
2022/06/05 06:40:57;;;;;;;12.80;9.70;;;;;;;22.34;61.10;99039.19;433969;1267;109651;-43
2022/06/05 06:51:07;;;;;;;11.10;10.00;;;;;;;22.25;60.85;99040.69;434201;1268;99254;-42
2022/06/05 07:01:15;;;;;;;10.20;9.30;;;;;;;22.24;59.94;99029.39;434198;1268;112422;-42
2022/06/05 07:21:29;;;;;;;12.70;9.80;;;;;;;22.17;59.46;99030.55;434131;1267;99276;-42
2022/06/05 07:31:37;;;;;;;10.70;9.70;;;;;;;22.04;59.16;99027.79;434083;1267;109517;-45
2022/06/05 07:41:44;;;;;;;9.30;8.20;;;;;;;22.27;59.09;99032.92;434282;1266;99257;-40
2022/06/05 08:02:20;;;;;;;12.20;8.80;;;;;;;22.42;57.48;99035.80;434265;1267;108775;-42
2022/06/05 08:12:31;;;;;;;7.90;7.20;;;;;;;22.78;57.73;99032.45;434056;1266;99254;-41
2022/06/05 08:22:38;;;;;;;6.90;5.50;;;;;;;23.33;56.72;99033.42;434168;1267;109201;-41
2022/06/05 08:32:44;;;;;;;;;;;;;;;23.58;54.94;99039.03;434300;1267;98010;-43
2022/06/05 08:42:56;;;;;;;5.40;4.90;;;;;;;23.54;53.29;99040.20;434194;1267;111887;-42
2022/06/05 08:53:14;;;;;;;;;;;;;;;23.19;53.04;99040.14;434181;1267;108916;-41
2022/06/05 09:03:24;;;;;;;6.00;5.10;;;;;;;23.50;52.83;99030.57;434065;1268;99275;-43
2022/06/05 09:13:36;;;;;;;7.00;4.20;;;;;;;23.54;51.62;99032.48;434200;1267;108871;-41
2022/06/05 09:33:54;;;;;;;4.20;3.80;;;;;;;23.90;49.75;99044.29;434410;1266;112398;-42
2022/06/05 09:44:02;;;;;;;3.80;3.50;;;;;;;23.87;48.43;99042.79;434177;1268;108762;-43
2022/06/05 10:15:16;;;;;;;5.50;5.00;;;;;;;24.23;46.01;99017.28;434043;1267;108762;-42
2022/06/05 10:25:25;;;;;;;4.60;4.10;;;;;;;24.14;46.83;99015.10;433873;1268;99272;-42
2022/06/05 10:35:30;;;;;;;4.60;3.90;;;;;;;24.16;46.60;99019.36;434182;1267;108588;-41
2022/06/05 10:45:39;;;;;;;4.70;4.30;;;;;;;24.49;45.77;99006.02;434166;1267;99273;-41
2022/06/05 11:06:08;;;;;;;4.40;3.40;;;;;;;24.74;44.44;98993.83;434200;1265;108862;-43
2022/06/05 11:16:33;;;;;;;5.00;4.50;;;;;;;24.54;42.82;98988.82;433999;1266;99336;-42
2022/06/05 11:26:39;;;;;;;4.70;4.30;;;;;;;24.15;44.07;98986.02;434062;1267;108842;-43
2022/06/05 11:36:51;;;;;;;5.50;3.60;;;;;;;24.55;43.66;98974.75;433859;1266;99279;-42
2022/06/05 11:46:58;;;;;;;4.20;3.30;;;;;;;24.74;43.19;98970.00;434093;1266;112472;-40
2022/06/05 11:57:04;;;;;;;;;;;;;;;24.98;43.19;98968.06;434529;1266;108971;-42
2022/06/05 12:07:16;;;;;;;3.80;3.10;;;;;;;25.11;42.45;98957.38;433989;1267;99939;-43
2022/06/05 12:17:25;;;;;;;6.50;3.80;;;;;;;25.41;42.77;98946.73;434190;1267;108862;-40
2022/06/05 12:27:41;;;;;;;4.10;3.50;;;;;;;25.45;42.34;98937.30;434200;1267;99251;-42
2022/06/05 12:37:55;;;;;;;5.80;3.80;;;;;;;25.21;41.07;98928.50;434098;1265;112688;-40
2022/06/05 12:58:20;;;;;;;3.80;3.10;;;;;;;24.87;40.72;98902.64;434210;1267;99271;-42
2022/06/05 13:08:29;;;;;;;3.90;3.20;;;;;;;25.12;40.94;98895.48;433839;1267;109427;-42
2022/06/05 13:38:49;;;;;;;4.10;3.70;;;;;;;24.88;40.55;98868.05;434097;1267;107812;-45
2022/06/05 13:48:57;;;;;;;6.80;4.20;;;;;;;24.54;41.05;98856.75;434198;1266;99254;-41
2022/06/05 13:59:12;;;;;;;4.10;3.80;;;;;;;24.55;41.90;98845.90;434110;1267;108658;-39
2022/06/05 14:09:30;;;;;;;4.70;4.20;;;;;;;24.54;41.37;98849.82;434092;1266;98007;-40
2022/06/05 14:19:39;;;;;;;7.60;4.00;;;;;;;24.53;41.06;98832.67;434105;1265;111491;-41
2022/06/05 14:29:49;;;;;;;4.90;4.50;;;;;;;24.50;40.97;98827.84;434041;1266;108492;-42
2022/06/05 14:40:03;;;;;;;4.90;4.50;;;;;;;24.38;41.45;98819.34;433963;1267;99906;-42
2022/06/05 14:50:08;;;;;;;3.90;3.60;;;;;;;24.53;41.65;98818.83;433823;1267;108783;-42
2022/06/05 15:00:21;;;;;;;4.20;3.80;;;;;;;24.47;41.25;98806.31;434243;1267;99245;-40
2022/06/05 15:10:36;;;;;;;4.70;4.30;;;;;;;24.51;40.84;98794.29;434277;1267;112401;-41
2022/06/05 15:20:46;;;;;;;4.70;4.30;;;;;;;24.39;40.40;98787.02;433919;1267;108898;-41
2022/06/05 15:30:59;;;;;;;4.00;3.70;;;;;;;24.33;40.67;98778.88;434301;1267;99289;-41
2022/06/05 15:41:05;;;;;;;4.40;4.00;;;;;;;24.09;40.43;98774.42;434294;1267;112294;-42
2022/06/05 15:51:14;;;;;;;5.10;3.60;;;;;;;23.99;40.45;98765.88;434056;1267;109132;-42
2022/06/05 16:01:21;;;;;;;4.20;3.90;;;;;;;23.87;40.39;98753.45;434118;1266;98140;-42
2022/06/05 16:11:31;;;;;;;5.00;3.80;;;;;;;23.75;40.51;98754.83;433974;1267;108694;-40
2022/06/05 16:21:45;;;;;;;4.20;3.90;;;;;;;23.51;40.80;98747.96;434112;1267;99250;-40
2022/06/05 16:32:02;;;;;;;4.70;4.30;;;;;;;23.49;41.46;98740.13;434159;1266;112446;-43
2022/06/05 16:42:16;;;;;;;5.20;4.80;;;;;;;23.44;41.44;98728.02;434014;1265;108793;-40
2022/06/05 17:02:49;;;;;;;5.00;4.60;;;;;;;23.09;42.22;98728.25;434085;1267;108931;-44
2022/06/05 17:12:59;;;;;;;7.40;4.70;;;;;;;22.91;42.38;98722.91;434027;1266;99352;-44
2022/06/05 17:23:08;;;;;;;5.20;4.40;;;;;;;22.66;42.79;98721.42;434328;1267;112289;-43
2022/06/05 17:33:28;;;;;;;7.50;5.10;;;;;;;22.42;42.92;98722.02;434189;1266;107571;-47
2022/06/05 17:43:34;;;;;;;4.80;4.40;;;;;;;22.26;43.42;98714.54;434224;1267;99308;-44
2022/06/05 17:53:45;;;;;;;4.90;4.50;;;;;;;22.05;43.79;98712.23;434092;1267;108859;-43
2022/06/05 18:03:52;;;;;;;4.60;4.20;;;;;;;21.86;44.16;98720.60;434076;1267;99285;-43
2022/06/05 18:14:00;;;;;;;6.00;5.10;;;;;;;21.61;44.57;98712.64;434192;1267;112453;-41
2022/06/05 18:24:05;;;;;;;7.20;5.30;;;;;;;21.39;45.18;98727.12;434108;1267;108518;-45
2022/06/05 18:34:12;;;;;;;6.10;5.60;;;;;;;21.13;45.73;98743.05;434163;1268;99298;-43
2022/06/05 18:44:16;;;;;;;7.40;5.90;;;;;;;20.79;46.20;98743.35;434292;1267;108797;-42
2022/06/05 18:54:23;;;;;;;5.80;5.30;;;;;;;20.51;46.98;98748.98;434012;1267;99296;-43
2022/06/05 19:14:42;;;;;;;9.40;7.40;;;;;;;19.52;48.78;98759.06;434156;1267;108298;-41
2022/06/05 19:24:48;;;;;;;11.50;6.90;;;;;;;19.09;49.39;98762.27;433788;1267;99278;-42
2022/06/05 19:34:55;;;;;;;8.70;6.40;;;;;;;18.69;49.82;98762.24;433605;1267;109845;-42
2022/06/05 19:55:37;;;;;;;7.00;6.30;;;;;;;18.26;50.41;98761.23;433677;1267;112261;-46
2022/06/05 20:05:54;;;;;;;6.30;5.00;;;;;;;18.15;50.32;98761.92;433583;1267;107910;-42
2022/06/05 20:16:01;;;;;;;6.30;5.60;;;;;;;18.02;50.68;98753.48;433775;1267;99301;-42
2022/06/05 20:26:11;;;;;;;6.70;6.00;;;;;;;17.82;50.87;98774.14;434018;1267;108784;-43
2022/06/05 20:36:21;;;;;;;9.30;5.60;;;;;;;17.33;51.42;98772.27;434321;1268;99276;-42
2022/06/05 20:46:31;;;;;;;11.30;5.60;;;;;;;16.99;52.16;98772.30;434172;1267;112482;-47
2022/06/05 20:56:41;;;;;;;7.10;6.20;;;;;;;16.93;52.62;98762.21;434030;1267;107458;-41
2022/06/05 21:17:20;;;;;;;7.90;6.00;;;;;;;16.64;53.43;98766.17;434119;1267;108936;-44
2022/06/05 21:37:36;;;;;;;9.30;7.00;;;;;;;16.39;54.36;98777.51;434031;1267;112346;-42
2022/06/05 21:47:46;;;;;;;10.90;8.50;;;;;;;16.48;54.62;98776.93;434198;1267;108675;-41
2022/06/05 21:57:52;;;;;;;11.50;8.30;;;;;;;16.59;54.99;98762.81;434341;1267;99970;-44
2022/06/05 22:07:59;;;;;;;11.60;9.20;;;;;;;16.84;54.99;98770.49;433959;1267;108713;-41
2022/06/05 22:18:04;;;;;;;13.10;8.10;;;;;;;16.85;54.91;98771.45;434034;1267;98049;-43
2022/06/05 22:28:09;;;;;;;11.80;9.70;;;;;;;16.33;55.08;98758.48;433883;1267;111461;-41
2022/06/05 22:38:17;;;;;;;11.10;9.00;;;;;;;15.76;55.80;98732.11;433959;1268;107509;-41
2022/06/05 22:48:24;;;;;;;11.90;7.60;;;;;;;15.66;56.58;98716.73;433949;1268;99280;-41
2022/06/05 22:58:31;;;;;;;11.20;9.20;;;;;;;15.77;57.11;98705.94;433943;1268;108853;-41
2022/06/05 23:08:36;;;;;;;10.00;8.30;;;;;;;15.71;57.53;98702.35;434101;1267;98847;-43
2022/06/05 23:29:09;;;;;;;10.80;9.20;;;;;;;15.63;57.84;98700.16;433866;1267;108736;-44
2022/06/05 23:39:16;;;;;;;9.50;8.40;;;;;;;15.56;58.18;98697.92;434129;1268;99267;-42
2022/06/05 23:49:26;;;;;;;9.50;8.60;;;;;;;15.57;58.35;98693.90;434011;1268;108748;-41
2022/06/05 23:59:35;;;;;;;11.50;10.20;;;;;;;15.54;58.67;98694.52;434182;1268;98054;-42
